createdAt,value
2023-02-21T00:02:18.692Z,100351.56
2023-02-21T00:05:04.721Z,100356.31
2023-02-21T00:07:53.059Z,100347.12
2023-02-21T00:10:39.760Z,100343.88
2023-02-21T00:13:25.588Z,100331.19
2023-02-21T00:16:11.484Z,100326.47
2023-02-21T00:18:57.944Z,100330.06
2023-02-21T00:21:45.914Z,100320.50
2023-02-21T00:24:34.270Z,100325.56
2023-02-21T00:27:20.311Z,100345.69
2023-02-21T00:30:07.272Z,100337.91
2023-02-21T00:32:52.925Z,100337.59
2023-02-21T00:35:38.527Z,100320.16
2023-02-21T00:38:26.362Z,100328.25
2023-02-21T00:41:12.923Z,100299.78
2023-02-21T00:43:58.994Z,100331.31
2023-02-21T00:46:44.585Z,100337.56
2023-02-21T00:49:30.381Z,100342.81
2023-02-21T00:52:16.337Z,100345.47
2023-02-21T00:55:01.510Z,100337.69
2023-02-21T00:57:46.691Z,100328.97
2023-02-21T01:00:39.740Z,100327.88
2023-02-21T01:03:25.488Z,100308.37
2023-02-21T01:06:12.436Z,100310.81
2023-02-21T01:09:03.517Z,100313.06
2023-02-21T01:11:51.475Z,100315.50
2023-02-21T01:14:37.684Z,100319.44
2023-02-21T01:17:23.447Z,100306.22
2023-02-21T01:20:09.164Z,100311.53
2023-02-21T01:22:54.772Z,100302.91
2023-02-21T01:25:40.339Z,100293.97
2023-02-21T01:28:26.447Z,100307.22
2023-02-21T01:31:12.102Z,100300.78
2023-02-21T01:33:59.560Z,100290.06
2023-02-21T01:36:46.838Z,100289.22
2023-02-21T01:39:32.749Z,100305.91
2023-02-21T01:42:18.578Z,100292.03
2023-02-21T01:45:05.603Z,100295.53
2023-02-21T01:47:52.032Z,100283.66
2023-02-21T01:50:46.411Z,100296.88
2023-02-21T01:53:36.529Z,100280.97
2023-02-21T01:56:23.302Z,100291.50
2023-02-21T01:59:11.471Z,100297.56
2023-02-21T02:02:08.813Z,100273.25
2023-02-21T02:04:54.253Z,100286.41
2023-02-21T02:07:40.186Z,100253.69
2023-02-21T02:10:29.922Z,100268.28
2023-02-21T02:13:08.530Z,100280.22
2023-02-21T02:15:47.534Z,100271.06
2023-02-21T02:18:45.898Z,100261.72
2023-02-21T02:21:13.062Z,100277.37
2023-02-21T02:24:07.993Z,100292.72
2023-02-21T02:26:47.042Z,100282.88
2023-02-21T02:29:40.414Z,100283.16
2023-02-21T02:32:27.182Z,100272.00
2023-02-21T02:35:09.001Z,100280.03
2023-02-21T02:38:03.593Z,100256.47
2023-02-21T02:40:57.958Z,100269.41
2023-02-21T02:43:31.584Z,100259.81
2023-02-21T02:46:05.498Z,100272.78
2023-02-21T02:48:44.546Z,100273.47
2023-02-21T02:51:14.496Z,100262.00
2023-02-21T02:53:42.174Z,100280.66
2023-02-21T02:56:12.099Z,100277.19
2023-02-21T02:58:47.746Z,100265.88
2023-02-21T03:01:30.817Z,100277.13
2023-02-21T03:04:16.109Z,100277.47
2023-02-21T03:07:09.380Z,100276.16
2023-02-21T03:09:59.341Z,100268.19
2023-02-21T03:12:37.579Z,100273.56
2023-02-21T03:15:12.153Z,100281.28
2023-02-21T03:17:45.586Z,100289.81
2023-02-21T03:20:15.066Z,100267.28
2023-02-21T03:22:45.201Z,100273.84
2023-02-21T03:25:14.497Z,100273.94
2023-02-21T03:27:44.451Z,100272.19
2023-02-21T03:30:12.564Z,100275.72
2023-02-21T03:32:52.054Z,100270.78
2023-02-21T03:35:20.621Z,100270.06
2023-02-21T03:37:49.794Z,100280.78
2023-02-21T03:40:20.879Z,100274.72
2023-02-21T03:42:47.930Z,100275.44
2023-02-21T03:45:14.796Z,100271.97
2023-02-21T03:47:41.829Z,100276.44
2023-02-21T03:50:11.733Z,100278.88
2023-02-21T03:52:38.916Z,100285.25
2023-02-21T03:55:07.592Z,100278.69
2023-02-21T03:57:34.999Z,100283.25
2023-02-21T04:00:03.613Z,100284.63
2023-02-21T04:02:33.941Z,100281.56
2023-02-21T04:05:00.853Z,100293.47
2023-02-21T04:07:28.131Z,100285.25
2023-02-21T04:09:56.229Z,100284.06
2023-02-21T04:12:23.235Z,100275.16
2023-02-21T04:14:52.333Z,100281.47
2023-02-21T04:17:19.238Z,100288.47
2023-02-21T04:19:46.518Z,100273.66
2023-02-21T04:22:13.530Z,100293.19
2023-02-21T04:24:40.428Z,100285.00
2023-02-21T04:27:07.615Z,100266.03
2023-02-21T04:29:34.543Z,100294.94
2023-02-21T04:32:03.322Z,100296.03
2023-02-21T04:34:30.375Z,100290.56
2023-02-21T04:36:57.284Z,100298.78
2023-02-21T04:39:25.401Z,100300.56
2023-02-21T04:41:52.326Z,100284.72
2023-02-21T04:44:19.273Z,100288.28
2023-02-21T04:46:46.215Z,100290.72
2023-02-21T04:49:14.064Z,100279.59
2023-02-21T04:51:41.793Z,100290.22
2023-02-21T04:54:08.818Z,100291.25
2023-02-21T04:56:35.887Z,100267.63
2023-02-21T04:59:03.172Z,100285.16
2023-02-21T05:01:31.674Z,100260.66
2023-02-21T05:04:00.259Z,100292.16
2023-02-21T05:06:28.781Z,100288.81
2023-02-21T05:08:56.068Z,100275.84
2023-02-21T05:11:24.201Z,100292.81
2023-02-21T05:13:51.413Z,100267.91
2023-02-21T05:16:19.824Z,100280.44
2023-02-21T05:18:55.891Z,100261.22
2023-02-21T05:21:23.084Z,100278.44
2023-02-21T05:23:58.701Z,100279.38
2023-02-21T05:26:29.937Z,100269.56
2023-02-21T05:28:57.124Z,100257.28
2023-02-21T05:31:24.078Z,100269.56
2023-02-21T05:33:51.119Z,100249.41
2023-02-21T05:36:18.129Z,100275.66
2023-02-21T05:38:48.966Z,100266.75
2023-02-21T05:41:18.065Z,100264.91
2023-02-21T05:43:47.231Z,100263.00
2023-02-21T05:46:22.442Z,100259.38
2023-02-21T05:48:49.867Z,100263.78
2023-02-21T05:51:17.661Z,100264.66
2023-02-21T05:53:44.895Z,100255.72
2023-02-21T05:56:12.503Z,100247.97
2023-02-21T05:58:39.730Z,100229.41
2023-02-21T06:01:07.219Z,100259.91
2023-02-21T06:03:35.090Z,100234.72
2023-02-21T06:06:02.509Z,100260.78
2023-02-21T06:08:32.037Z,100271.22
2023-02-21T06:10:59.236Z,100250.31
2023-02-21T06:13:26.170Z,100281.94
2023-02-21T06:15:53.172Z,100283.72
2023-02-21T06:18:20.171Z,100292.53
2023-02-21T06:20:47.107Z,100294.16
2023-02-21T06:23:14.520Z,100296.66
2023-02-21T06:25:41.614Z,100298.53
2023-02-21T06:28:09.130Z,100306.41
2023-02-21T06:30:36.992Z,100305.50
2023-02-21T06:33:05.431Z,100302.88
2023-02-21T06:35:32.350Z,100305.19
2023-02-21T06:38:00.090Z,100313.12
2023-02-21T06:40:28.073Z,100302.34
2023-02-21T06:42:54.977Z,100310.25
2023-02-21T06:45:21.902Z,100320.72
2023-02-21T06:47:48.876Z,100311.69
2023-02-21T06:50:16.946Z,100307.22
2023-02-21T06:52:43.925Z,100309.81
2023-02-21T06:55:10.832Z,100304.41
2023-02-21T06:57:37.835Z,100322.00
2023-02-21T07:00:06.208Z,100317.47
2023-02-21T07:02:33.723Z,100329.75
2023-02-21T07:05:00.778Z,100326.19
2023-02-21T07:07:27.708Z,100337.56
2023-02-21T07:09:55.370Z,100323.22
2023-02-21T07:12:22.294Z,100322.31
2023-02-21T07:14:50.777Z,100325.00
2023-02-21T07:17:17.866Z,100320.47
2023-02-21T07:19:45.346Z,100323.12
2023-02-21T07:22:12.329Z,100327.41
2023-02-21T07:24:39.504Z,100333.47
2023-02-21T07:27:07.100Z,100335.94
2023-02-21T07:29:34.436Z,100336.75
2023-02-21T07:32:01.413Z,100336.53
2023-02-21T07:34:28.481Z,100329.34
2023-02-21T07:36:55.438Z,100331.00
2023-02-21T07:39:22.456Z,100338.91
2023-02-21T07:41:49.751Z,100335.06
2023-02-21T07:44:17.124Z,100341.16
2023-02-21T07:46:46.623Z,100337.44
2023-02-21T07:49:13.679Z,100330.91
2023-02-21T07:51:40.668Z,100336.25
2023-02-21T07:54:07.751Z,100334.50
2023-02-21T07:56:34.770Z,100321.72
2023-02-21T07:59:01.759Z,100311.87
2023-02-21T08:01:28.902Z,100315.16
2023-02-21T08:03:56.114Z,100313.78
2023-02-21T08:06:23.087Z,100305.91
2023-02-21T08:08:50.541Z,100288.78
2023-02-21T08:11:18.268Z,100296.38
2023-02-21T08:13:45.206Z,100311.06
2023-02-21T08:16:13.784Z,100298.25
2023-02-21T08:18:41.568Z,100311.50
2023-02-21T08:21:12.564Z,100308.06
2023-02-21T08:23:39.874Z,100322.47
2023-02-21T08:26:06.793Z,100318.94
2023-02-21T08:28:33.771Z,100330.62
2023-02-21T08:31:01.299Z,100325.06
2023-02-21T08:33:30.081Z,100317.69
2023-02-21T08:35:59.480Z,100294.22
2023-02-21T08:38:26.356Z,100318.09
2023-02-21T08:40:53.442Z,100301.56
2023-02-21T08:43:21.176Z,100306.16
2023-02-21T08:45:48.419Z,100310.38
2023-02-21T08:48:15.444Z,100314.16
2023-02-21T08:50:42.431Z,100313.66
2023-02-21T08:53:14.918Z,100317.94
2023-02-21T08:55:43.186Z,100317.91
2023-02-21T08:58:16.408Z,100323.41
2023-02-21T09:00:44.423Z,100295.25
2023-02-21T09:03:11.356Z,100313.16
2023-02-21T09:05:40.025Z,100287.16
2023-02-21T09:08:10.504Z,100302.09
2023-02-21T09:10:37.607Z,100290.63
2023-02-21T09:13:06.133Z,100290.34
2023-02-21T09:15:33.285Z,100288.75
2023-02-21T09:18:01.779Z,100294.28
2023-02-21T09:20:29.632Z,100283.00
2023-02-21T09:22:56.532Z,100287.31
2023-02-21T09:25:25.198Z,100299.38
2023-02-21T09:27:55.246Z,100287.41
2023-02-21T09:30:26.839Z,100299.62
2023-02-21T09:32:56.286Z,100313.53
2023-02-21T09:35:23.917Z,100313.34
2023-02-21T09:37:51.293Z,100321.87
2023-02-21T09:40:24.383Z,100321.91
2023-02-21T09:42:58.287Z,100334.91
2023-02-21T09:45:30.645Z,100330.28
2023-02-21T09:48:08.058Z,100324.13
2023-02-21T09:50:45.101Z,100335.19
2023-02-21T09:53:18.385Z,100348.97
2023-02-21T09:55:48.830Z,100350.53
2023-02-21T09:58:19.968Z,100343.72
2023-02-21T10:00:47.386Z,100354.81
2023-02-21T10:03:37.108Z,100363.06
2023-02-21T10:06:22.248Z,100353.62
2023-02-21T10:09:06.407Z,100341.50
2023-02-21T10:11:55.369Z,100366.63
2023-02-21T10:14:57.226Z,100361.63
2023-02-21T10:17:36.557Z,100373.28
2023-02-21T10:20:14.323Z,100370.53
2023-02-21T10:22:47.297Z,100360.72
2023-02-21T10:25:24.775Z,100354.06
2023-02-21T10:27:53.675Z,100337.31
2023-02-21T10:30:26.289Z,100345.72
2023-02-21T10:32:54.023Z,100354.41
2023-02-21T10:35:20.903Z,100356.34
2023-02-21T10:37:52.663Z,100347.69
2023-02-21T10:40:41.816Z,100346.03
2023-02-21T10:43:33.885Z,100344.06
2023-02-21T10:46:40.309Z,100343.53
2023-02-21T10:49:23.724Z,100342.34
2023-02-21T10:52:24.134Z,100333.50
2023-02-21T10:55:01.879Z,100354.47
2023-02-21T10:57:33.983Z,100344.97
2023-02-21T11:00:10.135Z,100348.44
2023-02-21T11:02:44.800Z,100339.41
2023-02-21T11:05:18.144Z,100328.16
2023-02-21T11:08:35.511Z,100325.91
2023-02-21T11:11:04.044Z,100333.75
2023-02-21T11:13:33.012Z,100295.50
2023-02-21T11:16:19.745Z,100318.94
2023-02-21T11:18:46.698Z,100322.00
2023-02-21T11:21:16.805Z,100316.19
2023-02-21T11:24:02.779Z,100301.75
2023-02-21T11:26:35.548Z,100286.88
2023-02-21T11:29:15.149Z,100298.88
2023-02-21T11:31:42.975Z,100303.00
2023-02-21T11:34:13.766Z,100288.06
2023-02-21T11:36:45.690Z,100300.03
2023-02-21T11:39:18.836Z,100291.00
2023-02-21T11:42:23.026Z,100293.81
2023-02-21T11:45:05.020Z,100273.16
2023-02-21T11:47:39.426Z,100292.91
2023-02-21T11:50:18.282Z,100282.84
2023-02-21T11:53:12.692Z,100285.47
2023-02-21T11:55:42.120Z,100283.63
2023-02-21T11:58:49.174Z,100295.19
2023-02-21T12:01:27.749Z,100280.31
2023-02-21T12:04:20.525Z,100279.94
2023-02-21T12:06:53.485Z,100288.63
2023-02-21T12:09:48.343Z,100280.25
2023-02-21T12:12:19.959Z,100290.03
2023-02-21T12:14:50.170Z,100291.53
2023-02-21T12:17:29.363Z,100286.41
2023-02-21T12:20:19.672Z,100268.16
2023-02-21T12:22:46.597Z,100294.47
2023-02-21T12:25:36.129Z,100294.47
2023-02-21T12:28:31.898Z,100281.09
2023-02-21T12:31:24.356Z,100286.06
2023-02-21T12:34:09.836Z,100275.25
2023-02-21T12:36:58.114Z,100278.25
2023-02-21T12:39:46.363Z,100272.47
2023-02-21T12:42:33.703Z,100256.81
2023-02-21T12:45:31.520Z,100267.37
2023-02-21T12:48:11.884Z,100272.75
2023-02-21T12:50:43.230Z,100247.09
2023-02-21T12:53:26.154Z,100271.88
2023-02-21T12:56:01.655Z,100248.66
2023-02-21T12:58:52.029Z,100258.56
2023-02-21T13:01:25.374Z,100241.72
2023-02-21T13:04:17.135Z,100256.97
2023-02-21T13:07:11.312Z,100263.66
2023-02-21T13:09:50.226Z,100238.97
2023-02-21T13:12:28.711Z,100249.19
2023-02-21T13:15:01.320Z,100251.16
2023-02-21T13:17:28.593Z,100247.91
2023-02-21T13:20:05.157Z,100250.87
2023-02-21T13:23:11.400Z,100248.50
2023-02-21T13:26:12.622Z,100226.34
2023-02-21T13:28:41.569Z,100243.25
2023-02-21T13:31:31.234Z,100233.94
2023-02-21T13:34:01.823Z,100253.13
2023-02-21T13:36:39.912Z,100251.34
2023-02-21T13:39:10.087Z,100241.00
2023-02-21T13:41:43.355Z,100242.59
2023-02-21T13:44:23.632Z,100227.53
2023-02-21T13:46:50.784Z,100247.75
2023-02-21T13:49:43.027Z,100235.12
2023-02-21T13:52:25.012Z,100250.41
2023-02-21T13:55:21.355Z,100260.03
2023-02-21T13:58:09.381Z,100251.59
2023-02-21T14:00:36.780Z,100250.78
2023-02-21T14:03:23.936Z,100252.69
2023-02-21T14:05:51.003Z,100238.47
2023-02-21T14:08:40.974Z,100249.09
2023-02-21T14:11:10.374Z,100250.16
2023-02-21T14:13:58.288Z,100248.19
2023-02-21T14:16:31.904Z,100252.28
2023-02-21T14:19:10.570Z,100246.12
2023-02-21T14:21:40.599Z,100259.69
2023-02-21T14:24:10.541Z,100254.28
2023-02-21T14:26:51.530Z,100247.97
2023-02-21T14:29:40.772Z,100226.66
2023-02-21T14:32:08.064Z,100266.12
2023-02-21T14:34:54.552Z,100259.56
2023-02-21T14:37:37.965Z,100259.47
2023-02-21T14:40:10.836Z,100259.97
2023-02-21T14:43:04.018Z,100270.34
2023-02-21T14:45:44.707Z,100257.53
2023-02-21T14:48:35.781Z,100253.69
2023-02-21T14:51:27.129Z,100252.84
2023-02-21T14:53:54.364Z,100256.94
2023-02-21T14:56:40.286Z,100257.94
2023-02-21T14:59:22.724Z,100247.00
2023-02-21T15:02:17.349Z,100253.38
2023-02-21T15:05:00.084Z,100258.59
2023-02-21T15:07:48.609Z,100248.56
2023-02-21T15:10:27.646Z,100252.53
2023-02-21T15:13:05.795Z,100256.06
2023-02-21T15:15:43.802Z,100243.84
2023-02-21T15:18:22.842Z,100262.22
2023-02-21T15:21:07.155Z,100263.34
2023-02-21T15:23:35.066Z,100256.38
2023-02-21T15:26:19.665Z,100252.88
2023-02-21T15:28:46.769Z,100246.28
2023-02-21T15:31:14.764Z,100246.09
2023-02-21T15:33:43.896Z,100244.19
2023-02-21T15:36:21.497Z,100245.38
2023-02-21T15:39:01.217Z,100260.41
2023-02-21T15:41:35.785Z,100247.59
2023-02-21T15:44:02.695Z,100251.31
2023-02-21T15:46:41.248Z,100250.00
2023-02-21T15:49:18.057Z,100248.53
2023-02-21T15:51:45.765Z,100251.44
2023-02-21T15:54:18.811Z,100257.34
2023-02-21T15:56:46.103Z,100263.78
2023-02-21T15:59:24.924Z,100265.09
2023-02-21T16:02:14.911Z,100265.69
2023-02-21T16:04:47.346Z,100264.22
2023-02-21T16:07:19.249Z,100262.75
2023-02-21T16:10:01.109Z,100269.19
2023-02-21T16:12:35.878Z,100267.06
2023-02-21T16:15:20.355Z,100284.75
2023-02-21T16:17:53.972Z,100269.97
2023-02-21T16:20:27.216Z,100278.06
2023-02-21T16:23:31.907Z,100276.50
2023-02-21T16:26:13.345Z,100277.63
2023-02-21T16:28:41.717Z,100279.34
2023-02-21T16:31:25.642Z,100283.78
2023-02-21T16:33:57.618Z,100289.88
2023-02-21T16:36:30.211Z,100293.34
2023-02-21T16:38:58.838Z,100293.56
2023-02-21T16:41:29.409Z,100296.09
2023-02-21T16:43:57.004Z,100293.56
2023-02-21T16:46:29.808Z,100307.84
2023-02-21T16:49:00.495Z,100314.09
2023-02-21T16:51:33.863Z,100298.37
2023-02-21T16:54:02.165Z,100314.94
2023-02-21T16:56:30.399Z,100312.97
2023-02-21T16:58:58.276Z,100318.41
2023-02-21T17:01:29.663Z,100314.72
2023-02-21T17:03:58.205Z,100322.72
2023-02-21T17:06:27.625Z,100327.97
2023-02-21T17:09:01.592Z,100314.81
2023-02-21T17:11:29.455Z,100327.06
2023-02-21T17:13:58.907Z,100327.97
2023-02-21T17:16:26.232Z,100328.84
2023-02-21T17:18:55.078Z,100328.84
2023-02-21T17:21:22.748Z,100335.03
2023-02-21T17:23:50.453Z,100325.28
2023-02-21T17:26:18.798Z,100334.94
2023-02-21T17:28:46.756Z,100332.56
2023-02-21T17:31:19.290Z,100339.69
2023-02-21T17:33:47.374Z,100339.50
2023-02-21T17:36:20.706Z,100333.50
2023-02-21T17:38:48.489Z,100345.84
2023-02-21T17:41:17.329Z,100339.63
2023-02-21T17:43:48.373Z,100349.34
2023-02-21T17:46:18.481Z,100340.41
2023-02-21T17:48:48.199Z,100343.09
2023-02-21T17:51:24.393Z,100342.44
2023-02-21T17:53:53.964Z,100349.47
2023-02-21T17:56:25.040Z,100344.03
2023-02-21T17:58:55.405Z,100343.25
2023-02-21T18:01:23.799Z,100343.41
2023-02-21T18:03:54.228Z,100346.13
2023-02-21T18:06:23.122Z,100338.13
2023-02-21T18:08:51.555Z,100337.28
2023-02-21T18:11:20.683Z,100341.81
2023-02-21T18:13:49.287Z,100341.91
2023-02-21T18:16:17.289Z,100333.25
2023-02-21T18:18:46.007Z,100343.13
2023-02-21T18:21:16.407Z,100340.44
2023-02-21T18:23:54.251Z,100327.38
2023-02-21T18:26:23.555Z,100328.22
2023-02-21T18:28:51.575Z,100331.91
2023-02-21T18:31:20.590Z,100315.34
2023-02-21T18:33:51.520Z,100337.31
2023-02-21T18:36:20.163Z,100337.47
2023-02-21T18:38:50.010Z,100340.25
2023-02-21T18:41:23.648Z,100340.31
2023-02-21T18:43:52.412Z,100337.78
2023-02-21T18:46:22.429Z,100341.47
2023-02-21T18:48:52.998Z,100348.66
2023-02-21T18:51:21.876Z,100346.22
2023-02-21T18:53:50.915Z,100332.03
2023-02-21T18:56:20.320Z,100342.66
2023-02-21T18:58:51.061Z,100338.41
2023-02-21T19:01:23.118Z,100341.03
2023-02-21T19:03:53.196Z,100346.38
2023-02-21T19:06:23.248Z,100342.94
2023-02-21T19:08:54.463Z,100349.28
2023-02-21T19:11:22.946Z,100357.31
2023-02-21T19:13:52.311Z,100355.72
2023-02-21T19:16:20.822Z,100358.69
2023-02-21T19:18:51.985Z,100358.81
2023-02-21T19:21:20.861Z,100366.84
2023-02-21T19:23:49.264Z,100366.06
2023-02-21T19:26:18.374Z,100363.53
2023-02-21T19:28:51.674Z,100355.69
2023-02-21T19:31:21.046Z,100361.19
2023-02-21T19:34:05.581Z,100364.03
2023-02-21T19:36:34.936Z,100357.22
2023-02-21T19:39:03.530Z,100363.56
2023-02-21T19:41:33.084Z,100365.47
2023-02-21T19:44:17.695Z,100359.34
2023-02-21T19:46:57.923Z,100360.22
2023-02-21T19:49:26.958Z,100339.25
2023-02-21T19:52:06.335Z,100356.78
2023-02-21T19:54:50.166Z,100367.47
2023-02-21T19:57:19.465Z,100380.00
2023-02-21T19:59:52.000Z,100371.16
2023-02-21T20:02:21.953Z,100373.00
2023-02-21T20:04:51.390Z,100369.63
2023-02-21T20:07:24.456Z,100378.69
2023-02-21T20:09:53.695Z,100375.97
2023-02-21T20:12:23.881Z,100375.25
2023-02-21T20:14:55.621Z,100380.56
2023-02-21T20:17:25.911Z,100364.66
2023-02-21T20:19:55.533Z,100378.63
2023-02-21T20:22:23.717Z,100375.09
2023-02-21T20:24:53.513Z,100384.09
2023-02-21T20:27:22.090Z,100376.28
2023-02-21T20:29:51.421Z,100376.44
2023-02-21T20:32:24.795Z,100378.25
2023-02-21T20:34:56.132Z,100373.97
2023-02-21T20:37:25.360Z,100373.09
2023-02-21T20:39:54.528Z,100375.84
2023-02-21T20:42:23.246Z,100380.28
2023-02-21T20:44:53.010Z,100390.84
2023-02-21T20:47:21.556Z,100383.81
2023-02-21T20:49:50.253Z,100388.25
2023-02-21T20:52:19.590Z,100375.19
2023-02-21T20:54:47.342Z,100382.22
2023-02-21T20:57:15.820Z,100383.94
2023-02-21T20:59:46.742Z,100370.78
2023-02-21T21:02:14.812Z,100377.78
2023-02-21T21:04:46.411Z,100361.16
2023-02-21T21:07:20.466Z,100376.03
2023-02-21T21:09:50.990Z,100368.97
2023-02-21T21:12:23.025Z,100375.19
2023-02-21T21:14:55.947Z,100381.41
2023-02-21T21:17:25.330Z,100383.09
2023-02-21T21:19:57.277Z,100367.44
2023-02-21T21:22:28.570Z,100384.19
2023-02-21T21:24:57.112Z,100388.66
2023-02-21T21:27:26.673Z,100391.34
2023-02-21T21:29:58.261Z,100394.09
2023-02-21T21:32:28.550Z,100395.97
2023-02-21T21:35:07.226Z,100398.75
2023-02-21T21:37:37.198Z,100399.69
2023-02-21T21:40:23.009Z,100400.72
2023-02-21T21:42:55.412Z,100397.28
2023-02-21T21:45:30.879Z,100394.78
2023-02-21T21:48:00.117Z,100404.59
2023-02-21T21:50:28.708Z,100405.44
2023-02-21T21:52:58.546Z,100398.28
2023-02-21T21:55:30.681Z,100397.44
2023-02-21T21:57:58.988Z,100396.44
2023-02-21T22:00:29.591Z,100384.09
2023-02-21T22:02:59.519Z,100401.59
2023-02-21T22:05:30.539Z,100401.62
2023-02-21T22:07:59.220Z,100402.50
2023-02-21T22:10:28.396Z,100406.00
2023-02-21T22:12:59.874Z,100399.00
2023-02-21T22:15:28.855Z,100406.91
2023-02-21T22:17:56.278Z,100404.28
2023-02-21T22:20:31.114Z,100400.59
2023-02-21T22:22:58.784Z,100402.50
2023-02-21T22:25:27.882Z,100398.16
2023-02-21T22:27:54.853Z,100394.56
2023-02-21T22:30:23.705Z,100405.19
2023-02-21T22:32:50.917Z,100397.16
2023-02-21T22:35:20.408Z,100400.59
2023-02-21T22:37:53.186Z,100396.25
2023-02-21T22:40:25.495Z,100405.91
2023-02-21T22:43:01.290Z,100412.22
2023-02-21T22:45:33.274Z,100407.75
2023-02-21T22:48:02.738Z,100415.75
2023-02-21T22:50:37.500Z,100420.09
2023-02-21T22:53:11.488Z,100416.63
2023-02-21T22:55:38.625Z,100414.81
2023-02-21T22:58:08.122Z,100413.06
2023-02-21T23:00:36.129Z,100416.75
2023-02-21T23:03:13.123Z,100429.28
2023-02-21T23:05:45.378Z,100426.81
2023-02-21T23:08:15.228Z,100434.03
2023-02-21T23:10:42.780Z,100440.37
2023-02-21T23:13:19.426Z,100430.75
2023-02-21T23:15:47.215Z,100434.41
2023-02-21T23:18:23.333Z,100430.13
2023-02-21T23:20:54.273Z,100435.50
2023-02-21T23:23:27.508Z,100427.56
2023-02-21T23:25:58.946Z,100432.12
2023-02-21T23:28:28.916Z,100436.59
2023-02-21T23:30:58.127Z,100439.25
2023-02-21T23:33:28.220Z,100435.78
2023-02-21T23:35:56.970Z,100434.88
2023-02-21T23:38:28.145Z,100435.78
2023-02-21T23:40:59.176Z,100434.09
2023-02-21T23:43:30.876Z,100431.53
2023-02-21T23:45:59.096Z,100429.81
2023-02-21T23:48:26.513Z,100426.34
2023-02-21T23:50:58.156Z,100433.37
2023-02-21T23:53:27.757Z,100417.66
2023-02-21T23:56:00.665Z,100432.56
2023-02-21T23:58:31.716Z,100429.94
